Time;durP1;ratioP1;P1;durP2;ratioP2;P2;SDS_P1;SDS_P2;PMS_P1;PMS_P2;Temp;Humidity;BMP_temperature;BMP_pressure;BME280_temperature;BME280_humidity;BME280_pressure;Samples;Min_cycle;Max_cycle;Signal;HPM_P1;HPM_P2
2023/06/03 00:01:07;;;;;;;1.20;1.20;;;20.80;71.10;;;;;;4990398;28;20434;-76
2023/06/03 00:03:33;;;;;;;1.38;1.30;;;20.80;71.20;;;;;;4989616;28;20067;-77
2023/06/03 00:05:59;;;;;;;1.50;1.40;;;20.80;71.20;;;;;;4989567;28;20161;-77
2023/06/03 00:08:25;;;;;;;1.50;1.40;;;20.80;72.00;;;;;;4988482;28;20057;-77
2023/06/03 00:10:51;;;;;;;1.23;1.23;;;20.80;71.10;;;;;;4993974;28;21104;-77
2023/06/03 00:13:16;;;;;;;1.50;1.40;;;20.80;70.90;;;;;;4990768;28;20061;-77
2023/06/03 00:15:42;;;;;;;1.40;1.38;;;20.80;71.00;;;;;;4993451;28;20042;-77
2023/06/03 00:18:08;;;;;;;1.45;1.35;;;20.80;70.90;;;;;;4989465;28;20045;-77
2023/06/03 00:20:35;;;;;;;1.38;1.38;;;20.80;70.90;;;;;;4992586;28;20528;-77
2023/06/03 00:23:03;;;;;;;1.15;1.13;;;20.70;70.80;;;;;;4990969;28;20061;-77
2023/06/03 00:25:30;;;;;;;1.33;1.30;;;20.70;70.80;;;;;;4990902;28;20050;-77
2023/06/03 00:27:56;;;;;;;1.50;1.40;;;20.70;70.80;;;;;;4987954;28;20102;-76
2023/06/03 00:30:21;;;;;;;1.85;1.40;;;20.70;70.90;;;;;;4990468;28;20052;-77
2023/06/03 00:32:47;;;;;;;1.40;1.30;;;20.80;70.90;;;;;;4993116;28;20054;-77
2023/06/03 00:35:13;;;;;;;1.15;1.15;;;20.70;71.00;;;;;;4997607;28;20432;-77
2023/06/03 00:37:38;;;;;;;1.73;1.63;;;20.80;70.90;;;;;;5007730;28;20029;-77
2023/06/03 00:40:05;;;;;;;1.63;1.45;;;20.70;70.80;;;;;;5001891;28;20046;-77
2023/06/03 00:42:30;;;;;;;1.30;1.30;;;20.70;70.70;;;;;;4988858;28;20471;-77
2023/06/03 00:44:56;;;;;;;2.25;1.27;;;20.80;70.90;;;;;;4991256;28;20053;-76
2023/06/03 00:47:21;;;;;;;1.42;1.33;;;20.70;70.80;;;;;;5003379;28;20046;-77
2023/06/03 00:49:47;;;;;;;1.40;1.30;;;20.70;70.70;;;;;;4988930;28;20096;-77
2023/06/03 00:52:13;;;;;;;1.50;1.40;;;20.70;70.70;;;;;;5002401;28;20044;-76
2023/06/03 00:54:38;;;;;;;1.50;1.10;;;20.70;70.70;;;;;;4988331;28;20045;-77
2023/06/03 00:57:04;;;;;;;1.00;1.00;;;20.70;70.60;;;;;;4986928;28;20045;-77
2023/06/03 00:59:30;;;;;;;1.42;1.33;;;20.70;70.60;;;;;;4991406;28;20053;-77
2023/06/03 01:01:55;;;;;;;1.00;1.00;;;20.70;70.70;;;;;;4988908;28;20034;-77
2023/06/03 01:04:25;;;;;;;1.40;1.40;;;20.70;70.60;;;;;;4989097;28;20503;-77
2023/06/03 01:06:58;;;;;;;1.30;1.25;;;20.70;70.60;;;;;;4991876;28;20146;-77
2023/06/03 01:09:36;;;;;;;1.30;1.20;;;20.70;70.60;;;;;;4987761;28;20057;-77
2023/06/03 01:12:07;;;;;;;1.45;1.38;;;20.70;70.60;;;;;;4989998;28;20559;-76
2023/06/03 01:14:45;;;;;;;1.42;1.25;;;20.70;70.50;;;;;;4991344;28;20054;-77
2023/06/03 01:17:11;;;;;;;1.33;1.27;;;20.70;70.50;;;;;;5005383;28;20065;-77
2023/06/03 01:19:47;;;;;;;1.42;1.33;;;20.70;70.40;;;;;;5005128;28;20905;-77
2023/06/03 01:22:14;;;;;;;1.20;1.20;;;20.70;70.50;;;;;;4993425;28;20167;-77
2023/06/03 01:24:40;;;;;;;1.55;1.45;;;20.70;70.50;;;;;;4995114;28;20534;-76
2023/06/03 01:27:09;;;;;;;1.25;1.10;;;20.70;70.40;;;;;;4992539;28;20043;-76
2023/06/03 01:29:39;;;;;;;0.90;0.90;;;20.70;70.50;;;;;;4993842;28;20050;-77
2023/06/03 01:32:05;;;;;;;1.33;1.30;;;20.70;70.50;;;;;;4994819;28;20053;-76
2023/06/03 01:34:31;;;;;;;1.05;1.05;;;20.70;70.50;;;;;;4978534;28;20051;-77
2023/06/03 01:36:57;;;;;;;1.10;1.10;;;20.70;70.50;;;;;;4995347;28;20167;-76
2023/06/03 01:39:22;;;;;;;1.20;1.20;;;20.70;70.40;;;;;;5004617;28;20103;-77
2023/06/03 01:41:48;;;;;;;1.67;1.58;;;20.70;71.10;;;;;;5011487;28;20127;-77
2023/06/03 01:44:14;;;;;;;1.75;1.40;;;20.70;70.20;;;;;;4997111;28;20410;-77
2023/06/03 01:46:39;;;;;;;1.50;1.40;;;20.70;70.30;;;;;;5000380;28;20049;-76
2023/06/03 01:49:08;;;;;;;1.23;1.13;;;20.70;70.30;;;;;;4998162;28;20050;-76
2023/06/03 01:51:33;;;;;;;1.77;1.67;;;20.70;70.30;;;;;;4994663;28;20047;-77
2023/06/03 01:53:59;;;;;;;1.45;1.35;;;20.60;70.10;;;;;;5011083;28;20515;-77
2023/06/03 01:56:25;;;;;;;1.40;1.30;;;20.70;70.20;;;;;;4994934;28;20057;-76
2023/06/03 01:58:51;;;;;;;1.35;1.20;;;20.70;70.30;;;;;;5010165;28;20100;-76
2023/06/03 02:01:17;;;;;;;1.42;1.30;;;20.60;70.10;;;;;;4998542;28;20049;-76
2023/06/03 02:03:42;;;;;;;0.90;0.90;;;20.60;70.10;;;;;;5002727;28;20539;-77
2023/06/03 02:06:08;;;;;;;1.10;1.10;;;20.60;70.00;;;;;;5010067;28;20054;-77
2023/06/03 02:08:36;;;;;;;1.08;1.08;;;20.60;70.00;;;;;;4994051;28;20081;-77
2023/06/03 02:11:01;;;;;;;1.30;1.20;;;20.60;70.00;;;;;;4991654;28;20054;-76
2023/06/03 02:13:27;;;;;;;1.20;1.10;;;20.60;70.00;;;;;;5012466;28;20061;-76
2023/06/03 02:15:52;;;;;;;1.00;1.00;;;20.60;70.00;;;;;;4992520;28;20038;-76
2023/06/03 02:18:18;;;;;;;0.80;0.80;;;20.60;69.90;;;;;;5020458;28;20030;-77
2023/06/03 02:20:45;;;;;;;0.93;0.93;;;20.60;69.90;;;;;;5010437;28;20057;-77
2023/06/03 02:23:11;;;;;;;0.90;0.90;;;20.60;70.00;;;;;;5007854;28;20049;-76
2023/06/03 02:25:36;;;;;;;1.20;1.10;;;20.60;69.90;;;;;;4997872;28;20051;-76
2023/06/03 02:28:03;;;;;;;1.20;1.20;;;20.60;69.90;;;;;;4994860;28;20052;-77
2023/06/03 02:30:28;;;;;;;1.00;1.00;;;20.60;69.80;;;;;;4993954;28;20051;-77
2023/06/03 02:32:54;;;;;;;1.00;1.00;;;20.60;69.80;;;;;;5006197;28;20042;-77
2023/06/03 02:35:19;;;;;;;1.00;1.00;;;20.60;69.80;;;;;;4991654;28;20044;-77
2023/06/03 02:37:45;;;;;;;0.80;0.80;;;20.60;69.80;;;;;;4994942;28;20125;-77
2023/06/03 02:40:11;;;;;;;1.20;1.20;;;20.60;69.80;;;;;;4996316;28;20046;-76
2023/06/03 02:42:37;;;;;;;1.20;1.10;;;20.60;69.80;;;;;;4994621;28;20141;-77
2023/06/03 02:45:03;;;;;;;1.25;1.15;;;20.60;69.70;;;;;;4994997;28;20042;-76
2023/06/03 02:47:29;;;;;;;1.25;1.20;;;20.60;69.70;;;;;;4992218;28;20054;-77
2023/06/03 02:49:56;;;;;;;1.30;1.30;;;20.50;70.40;;;;;;4994147;28;20042;-77
2023/06/03 02:52:22;;;;;;;1.08;1.00;;;20.50;69.60;;;;;;4994097;28;20054;-77
2023/06/03 02:54:51;;;;;;;1.08;1.02;;;20.60;69.60;;;;;;4997031;28;20399;-77
2023/06/03 02:57:16;;;;;;;3.17;1.20;;;20.50;69.60;;;;;;4993782;28;20064;-76
2023/06/03 02:59:42;;;;;;;1.00;1.00;;;20.60;69.60;;;;;;4994099;28;20423;-77
2023/06/03 03:02:08;;;;;;;1.35;1.25;;;20.50;69.60;;;;;;5001667;28;20108;-76
2023/06/03 03:04:36;;;;;;;0.68;0.68;;;20.60;69.60;;;;;;4994710;28;20057;-77
2023/06/03 03:07:07;;;;;;;0.90;0.90;;;20.60;69.50;;;;;;5009361;28;20042;-77
2023/06/03 03:09:33;;;;;;;1.10;1.10;;;20.50;69.40;;;;;;4993733;28;20101;-76
2023/06/03 03:11:58;;;;;;;1.00;1.00;;;20.50;69.40;;;;;;4994106;28;20045;-77
2023/06/03 03:14:24;;;;;;;1.00;1.00;;;20.50;69.40;;;;;;4989644;28;20511;-76
2023/06/03 03:16:50;;;;;;;1.10;1.10;;;20.50;69.40;;;;;;4992246;28;20101;-76
2023/06/03 03:19:15;;;;;;;1.13;1.02;;;20.50;69.40;;;;;;4993589;28;20042;-77
2023/06/03 03:21:41;;;;;;;1.13;1.13;;;20.50;69.40;;;;;;4994035;28;20042;-77
2023/06/03 03:24:06;;;;;;;1.15;1.05;;;20.50;69.40;;;;;;5004824;28;20034;-76
2023/06/03 03:26:32;;;;;;;1.10;1.10;;;20.50;69.40;;;;;;5008833;28;20034;-77
2023/06/03 03:28:58;;;;;;;1.25;1.20;;;20.50;69.30;;;;;;5008147;28;20402;-77
2023/06/03 03:31:23;;;;;;;0.88;0.88;;;20.50;69.20;;;;;;4999431;28;20049;-77
2023/06/03 03:33:50;;;;;;;0.98;0.98;;;20.50;69.20;;;;;;4999229;28;20038;-77
2023/06/03 03:36:26;;;;;;;0.90;0.90;;;20.50;69.20;;;;;;4992890;28;20051;-77
2023/06/03 03:39:04;;;;;;;1.15;1.05;;;20.50;69.20;;;;;;4995688;28;20058;-77
2023/06/03 03:41:30;;;;;;;0.80;0.80;;;20.50;69.20;;;;;;4989290;28;20030;-77
2023/06/03 03:43:56;;;;;;;1.00;0.75;;;20.50;69.10;;;;;;5007907;28;20527;-77
2023/06/03 03:46:22;;;;;;;0.90;0.90;;;20.50;69.10;;;;;;4991866;28;20038;-76
2023/06/03 03:48:47;;;;;;;1.02;1.00;;;20.50;69.10;;;;;;4993532;28;20117;-76
2023/06/03 03:51:13;;;;;;;1.17;1.00;;;20.50;69.10;;;;;;4993171;28;20035;-76
2023/06/03 03:53:43;;;;;;;0.90;0.90;;;20.50;69.00;;;;;;4989791;28;20400;-76
2023/06/03 03:56:08;;;;;;;1.20;1.10;;;20.50;69.00;;;;;;4994400;28;20495;-76
2023/06/03 03:58:37;;;;;;;0.77;0.77;;;20.50;69.00;;;;;;4993495;28;20034;-76
2023/06/03 04:01:21;;;;;;;0.75;0.75;;;20.50;69.00;;;;;;4995430;28;20188;-76
2023/06/03 04:03:48;;;;;;;1.38;1.10;;;20.50;69.80;;;;;;4998286;28;20763;-76
2023/06/03 04:06:35;;;;;;;0.82;0.82;;;20.50;69.00;;;;;;4992780;28;20041;-76
2023/06/03 04:09:01;;;;;;;0.90;0.90;;;20.50;69.00;;;;;;4990935;28;20045;-76
2023/06/03 04:11:27;;;;;;;0.95;0.95;;;20.50;69.00;;;;;;5007108;28;20054;-76
2023/06/03 04:13:54;;;;;;;0.90;0.90;;;20.50;69.00;;;;;;4992612;28;20125;-77
2023/06/03 04:16:54;;;;;;;1.23;1.13;;;20.50;69.00;;;;;;4992524;28;20046;-76
2023/06/03 04:19:36;;;;;;;0.75;0.70;;;20.50;68.90;;;;;;4988527;28;20069;-76
2023/06/03 04:22:07;;;;;;;0.80;0.80;;;20.50;69.60;;;;;;4998052;28;20067;-77
2023/06/03 04:24:34;;;;;;;0.90;0.90;;;20.50;68.90;;;;;;4999154;28;20142;-76
2023/06/03 04:27:02;;;;;;;0.82;0.82;;;20.50;68.90;;;;;;4988577;28;20039;-76
2023/06/03 04:29:30;;;;;;;1.38;0.93;;;20.50;68.90;;;;;;4986514;28;20035;-76
2023/06/03 04:31:56;;;;;;;1.00;0.90;;;20.50;68.80;;;;;;5003333;28;20034;-76
2023/06/03 04:34:21;;;;;;;0.88;0.80;;;20.50;68.80;;;;;;4992322;28;20100;-76
2023/06/03 04:36:47;;;;;;;1.00;1.00;;;20.50;68.80;;;;;;4992891;28;20046;-76
2023/06/03 04:39:12;;;;;;;1.00;0.90;;;20.50;68.70;;;;;;4993854;28;20105;-76
2023/06/03 04:41:38;;;;;;;1.00;0.98;;;20.50;68.70;;;;;;4992743;28;20029;-76
2023/06/03 04:44:04;;;;;;;0.75;0.75;;;20.50;68.70;;;;;;4991007;28;20037;-76
2023/06/03 04:46:30;;;;;;;0.90;0.90;;;20.40;68.60;;;;;;4992245;28;20038;-76
2023/06/03 04:49:01;;;;;;;0.93;0.93;;;20.40;68.60;;;;;;4992549;28;20543;-76
2023/06/03 04:51:27;;;;;;;0.80;0.80;;;20.40;68.60;;;;;;4990995;28;20057;-76
2023/06/03 04:53:55;;;;;;;0.85;0.70;;;20.50;68.60;;;;;;4990547;28;20101;-77
2023/06/03 04:56:21;;;;;;;0.88;0.88;;;20.40;68.50;;;;;;4994902;28;20046;-76
2023/06/03 04:58:47;;;;;;;0.70;0.70;;;20.40;68.50;;;;;;4996724;28;20515;-76
2023/06/03 05:01:13;;;;;;;0.95;0.80;;;20.40;68.60;;;;;;4999415;28;20034;-76
2023/06/03 05:03:38;;;;;;;0.85;0.85;;;20.40;68.60;;;;;;5003301;28;20069;-76
2023/06/03 05:06:11;;;;;;;1.35;0.70;;;20.40;68.50;;;;;;4996943;28;20042;-76
2023/06/03 05:08:38;;;;;;;0.80;0.77;;;20.40;68.40;;;;;;4994858;28;20215;-76
2023/06/03 05:11:04;;;;;;;1.83;0.88;;;20.40;68.50;;;;;;4994440;28;20222;-76
2023/06/03 05:13:30;;;;;;;1.33;0.80;;;20.40;68.50;;;;;;4996166;28;20108;-77
2023/06/03 05:15:56;;;;;;;0.80;0.80;;;20.40;68.40;;;;;;5010228;28;20534;-76
2023/06/03 05:18:21;;;;;;;1.42;1.33;;;20.40;68.40;;;;;;5015652;28;20044;-76
2023/06/03 05:20:47;;;;;;;1.13;1.10;;;20.40;68.50;;;;;;5011712;28;20046;-77
2023/06/03 05:23:12;;;;;;;0.90;0.90;;;20.40;68.50;;;;;;5017503;28;20076;-76
2023/06/03 05:25:38;;;;;;;1.60;1.23;;;20.40;68.40;;;;;;5016832;28;20045;-76
2023/06/03 05:28:04;;;;;;;1.13;1.02;;;20.40;68.40;;;;;;5019687;28;20513;-76
2023/06/03 05:30:29;;;;;;;1.00;1.00;;;20.40;68.40;;;;;;5010708;28;20038;-77
2023/06/03 05:32:55;;;;;;;1.00;0.80;;;20.50;68.50;;;;;;5007428;28;20166;-76
2023/06/03 05:35:20;;;;;;;1.20;1.10;;;20.40;68.50;;;;;;4992873;28;20381;-76
2023/06/03 05:37:46;;;;;;;0.70;0.70;;;20.40;68.60;;;;;;4995963;28;20092;-76
2023/06/03 05:40:12;;;;;;;0.90;0.90;;;20.40;68.50;;;;;;4998373;28;20077;-77
2023/06/03 05:42:37;;;;;;;0.80;0.80;;;20.40;68.50;;;;;;4995408;28;20779;-76
2023/06/03 05:45:03;;;;;;;1.00;1.00;;;20.40;68.50;;;;;;5011340;28;20121;-77
2023/06/03 05:47:29;;;;;;;0.75;0.75;;;20.40;68.40;;;;;;4993280;28;20053;-77
2023/06/03 05:49:54;;;;;;;1.05;0.80;;;20.40;68.40;;;;;;4995256;28;20088;-76
2023/06/03 05:52:20;;;;;;;1.00;1.00;;;20.40;68.50;;;;;;5010108;28;20037;-76
2023/06/03 05:54:45;;;;;;;0.95;0.77;;;20.40;68.40;;;;;;5011023;28;20051;-77
2023/06/03 05:57:11;;;;;;;0.90;0.90;;;20.40;68.40;;;;;;4996002;28;20096;-77
2023/06/03 05:59:37;;;;;;;0.95;0.82;;;20.40;68.40;;;;;;4994569;28;20197;-76
2023/06/03 06:02:02;;;;;;;0.88;0.88;;;20.40;68.40;;;;;;5003754;28;20042;-76
2023/06/03 06:04:28;;;;;;;1.15;1.05;;;20.40;68.50;;;;;;4996270;28;20535;-76
2023/06/03 06:06:53;;;;;;;0.90;0.90;;;20.40;68.40;;;;;;4995323;28;20399;-77
2023/06/03 06:09:19;;;;;;;0.75;0.75;;;20.40;68.50;;;;;;4995027;28;20064;-76
2023/06/03 06:11:45;;;;;;;1.30;1.05;;;20.40;68.40;;;;;;4993568;28;20468;-77
2023/06/03 06:14:10;;;;;;;0.98;0.90;;;20.40;68.40;;;;;;4997051;28;20031;-77
2023/06/03 06:16:36;;;;;;;0.77;0.77;;;20.40;68.40;;;;;;4995918;28;20054;-76
2023/06/03 06:19:01;;;;;;;0.82;0.82;;;20.40;68.50;;;;;;5000761;28;20046;-76
2023/06/03 06:21:27;;;;;;;1.10;1.00;;;20.40;68.50;;;;;;5004385;28;20049;-76
2023/06/03 06:23:52;;;;;;;1.15;1.05;;;20.40;68.40;;;;;;5005975;28;20046;-77
2023/06/03 06:26:18;;;;;;;1.10;1.00;;;20.40;68.40;;;;;;4994056;28;20535;-76
2023/06/03 06:28:45;;;;;;;0.90;0.90;;;20.40;68.50;;;;;;5006910;28;20093;-76
2023/06/03 06:31:11;;;;;;;0.90;0.90;;;20.40;68.50;;;;;;4997854;28;20048;-77
2023/06/03 06:33:36;;;;;;;1.13;1.05;;;20.40;68.50;;;;;;5001159;28;20133;-76
2023/06/03 06:36:30;;;;;;;1.35;0.80;;;20.40;68.50;;;;;;4994842;28;20102;-77
2023/06/03 06:38:56;;;;;;;0.80;0.80;;;20.40;68.50;;;;;;4993531;28;20595;-76
2023/06/03 06:41:22;;;;;;;1.10;0.90;;;20.40;68.40;;;;;;4994409;28;20129;-76
2023/06/03 06:43:47;;;;;;;0.90;0.90;;;20.40;68.40;;;;;;5011381;28;20046;-76
2023/06/03 06:46:13;;;;;;;0.82;0.82;;;20.40;68.50;;;;;;4994891;28;20080;-76
2023/06/03 06:48:38;;;;;;;0.95;0.95;;;20.40;68.40;;;;;;4994122;28;20050;-76
2023/06/03 06:51:04;;;;;;;1.23;1.00;;;20.40;68.50;;;;;;4994681;28;20049;-76
2023/06/03 06:53:30;;;;;;;1.20;1.10;;;20.40;68.40;;;;;;4990373;28;20042;-76
2023/06/03 06:55:56;;;;;;;0.80;0.80;;;20.40;68.50;;;;;;5011189;28;20125;-77
2023/06/03 06:58:24;;;;;;;0.63;0.63;;;20.40;68.40;;;;;;4994558;28;20052;-76
2023/06/03 07:00:50;;;;;;;0.98;0.98;;;20.40;68.40;;;;;;5009945;28;20050;-76
2023/06/03 07:03:18;;;;;;;1.02;0.93;;;20.40;68.40;;;;;;5005766;28;20451;-77
2023/06/03 07:05:45;;;;;;;0.80;0.80;;;20.40;68.40;;;;;;5005211;28;20520;-76
2023/06/03 07:08:10;;;;;;;0.75;0.75;;;20.40;68.40;;;;;;4995979;28;20504;-77
2023/06/03 07:10:36;;;;;;;1.48;1.38;;;20.40;68.40;;;;;;4993788;28;20058;-77
2023/06/03 07:13:02;;;;;;;1.17;1.08;;;20.40;68.40;;;;;;4994261;28;20042;-76
2023/06/03 07:15:28;;;;;;;0.90;0.90;;;20.40;68.40;;;;;;4993942;28;20050;-76
2023/06/03 07:17:56;;;;;;;0.90;0.90;;;20.40;68.30;;;;;;5003414;28;20079;-76
2023/06/03 07:20:29;;;;;;;0.85;0.85;;;20.40;68.30;;;;;;4993603;28;20153;-76
2023/06/03 07:22:54;;;;;;;1.00;1.00;;;20.40;68.20;;;;;;4992086;28;20560;-77
2023/06/03 07:25:36;;;;;;;1.05;0.90;;;20.50;68.20;;;;;;4994049;28;20050;-76
2023/06/03 07:28:11;;;;;;;1.02;1.00;;;20.50;68.20;;;;;;4997130;28;20404;-77
2023/06/03 07:30:37;;;;;;;1.00;1.00;;;20.40;68.10;;;;;;5008869;28;20041;-77
2023/06/03 07:33:04;;;;;;;1.00;1.00;;;20.50;68.20;;;;;;5005204;28;20280;-77
2023/06/03 07:35:36;;;;;;;0.77;0.77;;;20.50;68.20;;;;;;5018512;28;20503;-77
2023/06/03 07:38:05;;;;;;;0.88;0.88;;;20.50;68.20;;;;;;4994104;28;20038;-75
2023/06/03 07:40:41;;;;;;;1.52;1.10;;;20.50;68.10;;;;;;5000051;28;20045;-76
2023/06/03 07:43:08;;;;;;;1.17;1.08;;;20.50;68.10;;;;;;4986775;28;20581;-76
2023/06/03 07:45:34;;;;;;;0.93;0.93;;;20.50;68.20;;;;;;4977483;28;20042;-76
2023/06/03 07:48:02;;;;;;;1.20;1.10;;;20.50;68.20;;;;;;4984991;28;20167;-76
2023/06/03 07:50:27;;;;;;;0.88;0.88;;;20.50;68.10;;;;;;4994710;28;20057;-76
2023/06/03 07:53:03;;;;;;;1.25;1.17;;;20.50;68.20;;;;;;4995101;28;20038;-75
2023/06/03 07:55:39;;;;;;;1.00;0.90;;;20.50;68.10;;;;;;5001704;28;20046;-75
2023/06/03 07:58:05;;;;;;;1.35;1.05;;;20.50;68.10;;;;;;4996160;28;20041;-75
2023/06/03 08:00:30;;;;;;;0.75;0.75;;;20.50;68.10;;;;;;5000766;28;20038;-75
2023/06/03 08:02:56;;;;;;;0.90;0.90;;;20.50;68.00;;;;;;5021265;28;20042;-75
2023/06/03 08:05:29;;;;;;;1.10;1.00;;;20.50;68.00;;;;;;4994338;28;20099;-76
2023/06/03 08:07:55;;;;;;;0.88;0.88;;;20.50;67.90;;;;;;5007623;28;20038;-76
2023/06/03 08:10:22;;;;;;;1.17;1.02;;;20.50;67.90;;;;;;5019639;28;20038;-75
2023/06/03 08:12:48;;;;;;;1.17;1.10;;;20.50;67.90;;;;;;5026770;28;20053;-74
2023/06/03 08:15:27;;;;;;;1.10;1.10;;;20.60;68.00;;;;;;5008755;28;20061;-74
2023/06/03 08:17:52;;;;;;;1.25;1.10;;;20.60;68.10;;;;;;5018891;28;20523;-74
2023/06/03 08:20:23;;;;;;;0.90;0.90;;;20.60;68.40;;;;;;5009400;28;20042;-74
2023/06/03 08:22:48;;;;;;;1.83;1.10;;;20.60;68.50;;;;;;4994213;28;20042;-74
2023/06/03 08:25:14;;;;;;;1.00;1.00;;;20.60;69.10;;;;;;4993753;28;20054;-74
2023/06/03 08:27:40;;;;;;;1.00;1.00;;;20.60;68.10;;;;;;4990793;28;20042;-74
2023/06/03 08:30:06;;;;;;;1.25;1.25;;;20.60;68.20;;;;;;4992333;28;20057;-74
2023/06/03 08:32:35;;;;;;;0.82;0.82;;;20.60;68.40;;;;;;5001331;28;20053;-74
2023/06/03 08:35:01;;;;;;;1.00;1.00;;;20.60;68.30;;;;;;5006515;28;20053;-74
2023/06/03 08:37:27;;;;;;;1.80;1.55;;;20.60;68.20;;;;;;4992254;28;20431;-74
2023/06/03 08:39:53;;;;;;;1.55;1.45;;;20.60;68.20;;;;;;4993927;28;20500;-74
2023/06/03 08:42:21;;;;;;;1.23;1.13;;;20.60;68.20;;;;;;5002669;28;20085;-74
2023/06/03 08:45:08;;;;;;;1.00;1.00;;;20.60;68.30;;;;;;5006461;28;20054;-74
2023/06/03 08:47:55;;;;;;;1.33;1.30;;;20.60;68.30;;;;;;4989213;28;20415;-74
2023/06/03 08:50:24;;;;;;;1.23;1.13;;;20.70;68.40;;;;;;5018507;28;20049;-74
2023/06/03 08:52:52;;;;;;;1.92;1.35;;;20.70;68.30;;;;;;5004448;28;20050;-74
2023/06/03 08:55:17;;;;;;;1.38;1.27;;;20.70;68.20;;;;;;4997654;28;20042;-74
2023/06/03 08:58:05;;;;;;;1.10;1.10;;;20.70;68.10;;;;;;4996956;28;20538;-74
2023/06/03 09:00:31;;;;;;;0.82;0.82;;;20.70;68.00;;;;;;5005288;28;20499;-74
2023/06/03 09:02:56;;;;;;;2.15;1.15;;;20.70;68.10;;;;;;5004682;28;20049;-74
2023/06/03 09:05:22;;;;;;;1.40;1.30;;;20.70;68.00;;;;;;4993066;28;20496;-74
2023/06/03 09:07:49;;;;;;;1.02;1.02;;;20.70;68.00;;;;;;4993579;28;20054;-74
2023/06/03 09:10:21;;;;;;;1.17;1.08;;;20.70;67.90;;;;;;4995042;28;20530;-74
2023/06/03 09:12:47;;;;;;;1.00;1.00;;;20.70;68.00;;;;;;4992111;28;20043;-74
2023/06/03 09:15:16;;;;;;;2.53;1.10;;;20.70;68.00;;;;;;5003725;28;20057;-74
2023/06/03 09:17:42;;;;;;;1.10;1.10;;;20.70;67.90;;;;;;4991617;28;20037;-74
2023/06/03 09:20:11;;;;;;;1.38;1.27;;;20.70;67.90;;;;;;4990277;28;20385;-74
2023/06/03 09:22:38;;;;;;;1.30;1.20;;;20.70;67.90;;;;;;5017345;28;20597;-74
2023/06/03 09:25:04;;;;;;;1.20;1.20;;;20.70;67.90;;;;;;4998083;28;20050;-74
2023/06/03 09:27:30;;;;;;;1.05;0.95;;;20.70;67.90;;;;;;4990101;28;20129;-74
2023/06/03 09:29:56;;;;;;;1.13;1.13;;;20.70;67.90;;;;;;5007501;28;20436;-74
2023/06/03 09:32:22;;;;;;;1.17;1.08;;;20.70;67.80;;;;;;4998366;28;20042;-74
2023/06/03 09:34:48;;;;;;;1.08;1.08;;;20.70;67.90;;;;;;5004870;28;20108;-74
2023/06/03 09:37:14;;;;;;;1.45;1.40;;;20.70;67.80;;;;;;4996712;28;20038;-74
2023/06/03 09:39:40;;;;;;;1.13;1.10;;;20.80;67.90;;;;;;5000336;28;20046;-74
2023/06/03 09:42:06;;;;;;;1.83;1.13;;;20.80;67.80;;;;;;4995201;28;20046;-74
2023/06/03 09:44:40;;;;;;;1.65;1.23;;;20.80;67.80;;;;;;5020219;28;20034;-74
2023/06/03 09:47:06;;;;;;;1.75;1.65;;;20.80;67.80;;;;;;5023657;28;20042;-74
2023/06/03 09:49:31;;;;;;;1.30;1.20;;;20.80;67.80;;;;;;5013009;28;20089;-74
2023/06/03 09:51:57;;;;;;;1.25;1.25;;;20.80;67.80;;;;;;5002074;28;20046;-74
2023/06/03 09:54:23;;;;;;;1.30;1.30;;;20.80;67.70;;;;;;5004904;28;20524;-74
2023/06/03 09:56:49;;;;;;;1.38;1.27;;;20.80;67.70;;;;;;5007937;28;20054;-74
2023/06/03 09:59:20;;;;;;;1.38;1.30;;;20.80;67.80;;;;;;5009587;28;20105;-74
2023/06/03 10:01:47;;;;;;;1.40;1.40;;;20.80;67.60;;;;;;5001340;28;20053;-74
2023/06/03 10:04:16;;;;;;;1.35;1.25;;;20.80;67.70;;;;;;5009153;28;20049;-74
2023/06/03 10:06:42;;;;;;;1.30;1.30;;;20.80;67.60;;;;;;5017569;28;20054;-74
2023/06/03 10:09:21;;;;;;;1.50;1.40;;;20.80;67.70;;;;;;5006879;28;20044;-74
2023/06/03 10:11:50;;;;;;;1.50;1.40;;;20.80;67.60;;;;;;4997891;28;20041;-74
2023/06/03 10:14:21;;;;;;;1.50;1.40;;;20.80;67.60;;;;;;4992519;28;20042;-74
2023/06/03 10:17:04;;;;;;;1.50;1.40;;;20.90;67.60;;;;;;5006251;28;20061;-74
2023/06/03 10:19:36;;;;;;;1.33;1.33;;;20.90;67.60;;;;;;4995574;28;20305;-74
2023/06/03 10:22:03;;;;;;;1.10;1.10;;;20.90;68.40;;;;;;4995134;28;20129;-74
2023/06/03 10:24:30;;;;;;;1.42;1.33;;;20.90;67.60;;;;;;4998822;28;20080;-74
2023/06/03 10:26:55;;;;;;;1.30;1.20;;;20.90;67.60;;;;;;4991763;28;20086;-74
2023/06/03 10:29:21;;;;;;;1.17;1.17;;;20.90;67.60;;;;;;4995444;28;20444;-74
2023/06/03 10:31:47;;;;;;;1.10;1.10;;;20.90;67.60;;;;;;5017080;28;20046;-74
2023/06/03 10:34:14;;;;;;;1.20;1.10;;;20.90;67.60;;;;;;4997252;28;20062;-74
2023/06/03 10:36:41;;;;;;;1.33;1.25;;;20.90;67.50;;;;;;5009374;28;20104;-74
2023/06/03 10:39:09;;;;;;;1.20;1.20;;;20.90;67.50;;;;;;4994830;28;20046;-74
2023/06/03 10:41:39;;;;;;;1.25;1.17;;;20.90;67.40;;;;;;4995562;28;20057;-74
2023/06/03 10:44:05;;;;;;;1.60;1.50;;;20.90;67.40;;;;;;5007733;28;20049;-74
2023/06/03 10:46:34;;;;;;;1.65;1.55;;;20.90;67.40;;;;;;4994436;28;20046;-74
2023/06/03 10:48:59;;;;;;;1.58;1.48;;;20.90;68.10;;;;;;5009356;28;20291;-74
2023/06/03 10:51:43;;;;;;;1.73;1.63;;;20.90;67.30;;;;;;5009297;28;20448;-74
2023/06/03 10:54:35;;;;;;;1.30;1.30;;;20.90;67.50;;;;;;4995421;28;20438;-74
2023/06/03 10:57:06;;;;;;;1.40;1.30;;;20.90;67.30;;;;;;5008791;28;20046;-74
2023/06/03 10:59:45;;;;;;;1.15;1.10;;;20.90;67.30;;;;;;4992416;28;20070;-74
2023/06/03 11:02:11;;;;;;;1.40;1.30;;;21.00;67.30;;;;;;5017835;28;20538;-74
2023/06/03 11:04:38;;;;;;;1.30;1.30;;;20.90;67.30;;;;;;4993529;28;20066;-74
2023/06/03 11:07:05;;;;;;;1.40;1.33;;;21.00;67.30;;;;;;5014484;28;20053;-74
2023/06/03 11:09:30;;;;;;;1.55;1.45;;;21.00;67.20;;;;;;5004075;28;20388;-74
2023/06/03 11:12:05;;;;;;;1.25;1.25;;;21.00;67.20;;;;;;5007893;28;20052;-74
2023/06/03 11:14:38;;;;;;;1.60;1.50;;;20.90;67.20;;;;;;5008931;28;20046;-74
2023/06/03 11:17:03;;;;;;;1.05;1.05;;;21.00;67.20;;;;;;5007575;28;20068;-73
2023/06/03 11:19:30;;;;;;;2.22;1.75;;;21.00;67.10;;;;;;5002365;28;20042;-74
2023/06/03 11:21:55;;;;;;;1.80;1.70;;;21.00;67.80;;;;;;5004008;28;20066;-74
2023/06/03 11:24:42;;;;;;;1.42;1.33;;;20.90;67.00;;;;;;5005858;28;20090;-74
2023/06/03 11:27:13;;;;;;;1.35;1.35;;;21.00;67.10;;;;;;5001247;28;20412;-74
2023/06/03 11:29:48;;;;;;;1.92;1.83;;;21.00;67.10;;;;;;5003275;28;20054;-74
2023/06/03 11:32:15;;;;;;;1.23;1.23;;;21.00;67.10;;;;;;5006843;28;20084;-74
2023/06/03 11:34:41;;;;;;;1.40;1.40;;;21.00;67.00;;;;;;4993112;28;20378;-74
2023/06/03 11:37:06;;;;;;;1.83;1.65;;;21.00;67.00;;;;;;4996232;28;20061;-74
2023/06/03 11:40:09;;;;;;;1.55;1.55;;;21.00;66.90;;;;;;5009319;28;20501;-74
2023/06/03 11:42:45;;;;;;;2.00;1.90;;;21.00;66.90;;;;;;4992654;28;20034;-74
2023/06/03 11:45:20;;;;;;;1.40;1.40;;;21.00;67.80;;;;;;4993736;28;20061;-74
2023/06/03 11:48:07;;;;;;;1.30;1.30;;;21.00;66.80;;;;;;4989474;28;20042;-74
2023/06/03 11:50:45;;;;;;;1.83;1.73;;;21.00;66.80;;;;;;5008154;28;20106;-74
2023/06/03 11:53:33;;;;;;;1.25;1.23;;;21.10;66.90;;;;;;4990455;28;20121;-74
2023/06/03 11:56:08;;;;;;;1.50;1.50;;;21.10;66.90;;;;;;4994422;28;20049;-74
2023/06/03 11:58:35;;;;;;;1.40;1.40;;;21.10;66.80;;;;;;4993180;28;20038;-74
2023/06/03 12:01:22;;;;;;;2.30;1.83;;;21.10;66.80;;;;;;4995019;28;20073;-74
2023/06/03 12:04:00;;;;;;;1.48;1.48;;;21.10;66.70;;;;;;5002344;28;20349;-74
2023/06/03 12:06:32;;;;;;;1.60;1.50;;;21.10;66.70;;;;;;5003562;28;20496;-74
2023/06/03 12:08:57;;;;;;;1.60;1.50;;;21.10;66.70;;;;;;4998378;28;20061;-74
2023/06/03 12:11:33;;;;;;;1.35;1.30;;;21.10;66.70;;;;;;5008167;28;20046;-74
2023/06/03 12:13:58;;;;;;;1.25;1.25;;;21.10;66.70;;;;;;5004473;28;20049;-74
2023/06/03 12:16:33;;;;;;;1.40;1.40;;;21.10;66.60;;;;;;5010046;28;20096;-74
2023/06/03 12:19:04;;;;;;;1.05;1.05;;;21.10;66.60;;;;;;5003200;28;20475;-74
2023/06/03 12:21:30;;;;;;;1.27;1.27;;;21.10;66.60;;;;;;5012043;28;20491;-74
2023/06/03 12:23:58;;;;;;;1.80;1.70;;;21.10;66.60;;;;;;4990045;28;20050;-74
2023/06/03 12:26:25;;;;;;;1.60;1.50;;;21.20;66.60;;;;;;5005202;28;20046;-74
2023/06/03 12:28:51;;;;;;;1.40;1.30;;;21.20;66.60;;;;;;4996534;28;20470;-74
2023/06/03 12:31:17;;;;;;;1.50;1.50;;;21.20;66.60;;;;;;4999855;28;20495;-74
2023/06/03 12:33:44;;;;;;;1.35;1.30;;;21.10;66.50;;;;;;5009730;28;20043;-74
2023/06/03 12:36:09;;;;;;;1.30;1.30;;;21.20;66.60;;;;;;5005007;28;20053;-74
2023/06/03 12:38:54;;;;;;;1.27;1.17;;;21.10;66.50;;;;;;5007491;28;27170;-74
2023/06/03 12:41:20;;;;;;;1.30;1.20;;;21.20;66.70;;;;;;5021778;28;20134;-74
2023/06/03 12:43:46;;;;;;;1.48;1.38;;;21.20;66.70;;;;;;5005128;28;20129;-74
2023/06/03 12:46:16;;;;;;;1.20;1.20;;;21.20;66.70;;;;;;4995240;28;20046;-74
2023/06/03 12:48:42;;;;;;;1.58;1.48;;;21.20;66.60;;;;;;4994750;28;20459;-74
2023/06/03 12:51:24;;;;;;;1.10;1.10;;;21.20;66.90;;;;;;5006620;28;20505;-74
2023/06/03 12:53:57;;;;;;;1.45;1.35;;;21.20;66.50;;;;;;5004530;28;20404;-74